Port Sanilac, Michigan
Current Conditions -  °F | °C
As of 3:50 AM on Friday 28 Nov 2014 (Local Time) from CYZR Reporting Station
Overcast Overcast  
Wind Chill: 10°   Ceiling: 3100
Heat Index: 21°   Visibility: 9mi
Dew Point: 10°   Wind: 10mph
Humidity: 63%   Direction: 310°NW
Pressure: 30.3"   Gusts: 18mph
Location:  43.43°N, 82.54°W
Report Text: CYZR 280850Z AUTO 31009G16KT 270V330 9SM OVC031 M06/M12 A3030 RMK SLP270
Loading
Personal Weather Stations






























Interactive Weather Map New forecast layout! Learn more

10-Day Weather Forecast

Advertisements
Track Severe Weather on mobile